createdAt,value
2023-04-10T00:00:53.124Z,172.53
2023-04-10T00:03:21.216Z,155.83
2023-04-10T00:05:49.072Z,176.00
2023-04-10T00:08:18.122Z,159.83
2023-04-10T00:10:46.196Z,151.30
2023-04-10T00:13:13.912Z,158.20
2023-04-10T00:15:42.014Z,171.10
2023-04-10T00:18:09.893Z,140.30
2023-04-10T00:20:37.748Z,166.87
2023-04-10T00:23:05.643Z,162.10
2023-04-10T00:25:34.620Z,160.20
2023-04-10T00:28:02.330Z,149.00
2023-04-10T00:30:30.079Z,169.77
2023-04-10T00:32:57.765Z,156.70
2023-04-10T00:35:25.406Z,156.90
2023-04-10T00:37:54.554Z,170.73
2023-04-10T00:40:23.064Z,164.93
2023-04-10T00:42:52.137Z,162.63
2023-04-10T00:45:20.059Z,163.20
2023-04-10T00:47:48.035Z,174.47
2023-04-10T00:50:16.187Z,165.90
2023-04-10T00:52:44.034Z,159.67
2023-04-10T00:55:12.595Z,160.93
2023-04-10T00:57:41.380Z,150.27
2023-04-10T01:00:11.945Z,150.53
2023-04-10T01:02:39.886Z,161.87
2023-04-10T01:05:08.982Z,158.83
2023-04-10T01:07:51.059Z,146.10
2023-04-10T01:10:26.311Z,149.00
2023-04-10T01:13:00.953Z,149.80
2023-04-10T01:15:31.822Z,144.90
2023-04-10T01:18:05.495Z,148.37
2023-04-10T01:20:35.807Z,149.87
2023-04-10T01:23:19.338Z,152.17
2023-04-10T01:25:50.411Z,158.97
2023-04-10T01:28:52.531Z,150.77
2023-04-10T01:31:22.381Z,141.27
2023-04-10T01:33:53.615Z,163.00
2023-04-10T01:36:25.118Z,153.20
2023-04-10T01:38:55.660Z,147.33
2023-04-10T01:41:24.906Z,140.10
2023-04-10T01:43:55.960Z,146.47
2023-04-10T01:46:25.893Z,147.73
2023-04-10T01:48:55.917Z,150.50
2023-04-10T01:51:24.698Z,139.90
2023-04-10T01:53:53.216Z,143.33
2023-04-10T01:56:25.496Z,152.80
2023-04-10T01:58:54.734Z,149.10
2023-04-10T02:01:29.886Z,139.80
2023-04-10T02:03:59.129Z,137.40
2023-04-10T02:06:38.534Z,138.10
2023-04-10T02:09:11.904Z,144.10
2023-04-10T02:11:45.789Z,145.97
2023-04-10T02:14:19.019Z,137.03
2023-04-10T02:16:48.197Z,144.60
2023-04-10T02:19:18.232Z,157.20
2023-04-10T02:21:47.104Z,147.13
2023-04-10T02:24:15.552Z,154.57
2023-04-10T02:26:47.563Z,153.80
2023-04-10T02:29:16.738Z,151.57
2023-04-10T02:31:45.738Z,144.27
2023-04-10T02:34:14.904Z,147.00
2023-04-10T02:36:42.604Z,141.77
2023-04-10T02:39:12.797Z,151.60
2023-04-10T02:41:48.519Z,150.63
2023-04-10T02:44:17.503Z,152.10
2023-04-10T02:46:46.513Z,155.37
2023-04-10T02:49:14.911Z,152.20
2023-04-10T02:51:42.618Z,159.10
2023-04-10T02:54:10.758Z,157.60
2023-04-10T02:56:40.019Z,158.50
2023-04-10T02:59:08.007Z,162.43
2023-04-10T03:01:39.371Z,165.10
2023-04-10T03:04:07.607Z,154.73
2023-04-10T03:06:39.551Z,171.97
2023-04-10T03:09:07.798Z,162.10
2023-04-10T03:11:35.684Z,158.53
2023-04-10T03:14:04.154Z,170.67
2023-04-10T03:16:31.959Z,155.47
2023-04-10T03:19:02.096Z,151.87
2023-04-10T03:21:30.078Z,157.27
2023-04-10T03:23:57.847Z,146.70
2023-04-10T03:26:26.225Z,151.77
2023-04-10T03:28:54.854Z,161.30
2023-04-10T03:31:22.856Z,160.67
2023-04-10T03:33:54.679Z,144.47
2023-04-10T03:36:23.904Z,146.90
2023-04-10T03:38:52.752Z,150.13
2023-04-10T03:41:22.200Z,156.53
2023-04-10T03:43:51.999Z,144.67
2023-04-10T03:46:20.730Z,146.13
2023-04-10T03:48:49.521Z,151.30
2023-04-10T03:51:17.328Z,143.77
2023-04-10T03:53:47.506Z,151.93
2023-04-10T03:56:17.434Z,157.43
2023-04-10T03:58:46.193Z,150.07
2023-04-10T04:01:15.045Z,160.87
2023-04-10T04:03:57.513Z,150.57
2023-04-10T04:06:54.526Z,168.60
2023-04-10T04:09:31.052Z,161.63
2023-04-10T04:12:17.913Z,150.10
2023-04-10T04:15:09.857Z,150.07
2023-04-10T04:17:47.073Z,162.47
2023-04-10T04:20:33.206Z,148.07
2023-04-10T04:23:12.346Z,142.70
2023-04-10T04:25:59.952Z,153.07
2023-04-10T04:28:47.232Z,142.10
2023-04-10T04:31:34.019Z,133.50
2023-04-10T04:34:02.325Z,142.33
2023-04-10T04:36:32.610Z,138.80
2023-04-10T04:39:16.509Z,146.57
2023-04-10T04:41:51.147Z,145.77
2023-04-10T04:44:46.659Z,133.07
2023-04-10T04:47:25.829Z,147.47
2023-04-10T04:50:28.797Z,129.00
2023-04-10T04:52:56.771Z,144.50
2023-04-10T04:55:42.993Z,146.97
2023-04-10T04:58:25.206Z,147.30
2023-04-10T05:01:12.829Z,144.90
2023-04-10T05:04:06.871Z,144.57
2023-04-10T05:06:55.737Z,142.67
2023-04-10T05:09:51.622Z,145.40
2023-04-10T05:12:41.855Z,160.77
2023-04-10T05:15:31.290Z,145.50
2023-04-10T05:18:14.185Z,157.43
2023-04-10T05:21:01.038Z,151.23
2023-04-10T05:23:47.209Z,148.40
2023-04-10T05:26:31.785Z,150.73
2023-04-10T05:29:13.767Z,163.87
2023-04-10T05:32:10.259Z,154.07
2023-04-10T05:35:05.247Z,141.00
2023-04-10T05:37:35.948Z,156.30
2023-04-10T05:40:22.231Z,152.10
2023-04-10T05:43:18.507Z,134.93
2023-04-10T05:45:59.667Z,154.53
2023-04-10T05:48:47.434Z,142.43
2023-04-10T05:51:37.666Z,149.07
2023-04-10T05:54:23.912Z,163.90
2023-04-10T05:57:08.966Z,167.87
2023-04-10T06:00:03.596Z,155.13
2023-04-10T06:03:03.168Z,146.97
2023-04-10T06:05:33.528Z,157.00
2023-04-10T06:08:05.420Z,149.50
2023-04-10T06:10:33.341Z,173.33
2023-04-10T06:13:01.253Z,179.63
2023-04-10T06:15:29.713Z,202.20
2023-04-10T06:17:58.381Z,188.17
2023-04-10T06:20:26.144Z,195.97
2023-04-10T06:22:55.197Z,204.37
2023-04-10T06:25:22.989Z,208.10
2023-04-10T06:27:50.746Z,211.73
2023-04-10T06:30:18.525Z,232.93
2023-04-10T06:32:46.332Z,219.80
2023-04-10T06:35:14.706Z,224.73
2023-04-10T06:37:43.378Z,235.30
2023-04-10T06:40:14.969Z,224.33
2023-04-10T06:42:42.687Z,210.03
2023-04-10T06:45:24.568Z,230.93
2023-04-10T06:47:52.406Z,240.80
2023-04-10T06:50:20.170Z,223.35
2023-04-10T06:52:48.793Z,231.20
2023-04-10T06:55:18.447Z,223.93
2023-04-10T06:57:46.053Z,226.18
2023-04-10T07:00:14.626Z,204.32
2023-04-10T07:02:42.274Z,195.85
2023-04-10T07:05:10.577Z,194.07
2023-04-10T07:07:38.405Z,184.52
2023-04-10T07:10:07.442Z,186.85
2023-04-10T07:12:36.462Z,179.70
2023-04-10T07:15:04.244Z,187.75
2023-04-10T07:17:32.035Z,174.98
2023-04-10T07:19:59.893Z,167.50
2023-04-10T07:22:27.824Z,159.38
2023-04-10T07:24:56.323Z,147.85
2023-04-10T07:27:24.693Z,151.50
2023-04-10T07:29:55.769Z,145.60
2023-04-10T07:32:23.927Z,147.57
2023-04-10T07:34:51.791Z,144.63
2023-04-10T07:37:19.407Z,144.02
2023-04-10T07:39:47.303Z,149.15
2023-04-10T07:42:14.921Z,136.48
2023-04-10T07:44:42.753Z,137.95
2023-04-10T07:47:11.805Z,134.63
2023-04-10T07:49:39.701Z,135.32
2023-04-10T07:52:07.369Z,132.52
2023-04-10T07:54:35.764Z,130.52
2023-04-10T07:57:03.388Z,122.75
2023-04-10T07:59:30.992Z,116.53
2023-04-10T08:01:58.762Z,120.32
2023-04-10T08:04:27.994Z,113.90
2023-04-10T08:06:55.886Z,111.78
2023-04-10T08:09:23.541Z,101.25
2023-04-10T08:11:51.241Z,104.60
2023-04-10T08:14:18.856Z,106.40
2023-04-10T08:16:46.574Z,95.53
2023-04-10T08:19:14.253Z,94.60
2023-04-10T08:21:43.241Z,112.88
2023-04-10T08:24:10.921Z,105.32
2023-04-10T08:26:38.537Z,107.10
2023-04-10T08:29:06.412Z,116.30
2023-04-10T08:31:35.020Z,108.15
2023-04-10T08:34:03.972Z,114.45
2023-04-10T08:36:32.251Z,108.40
2023-04-10T08:39:01.310Z,116.25
2023-04-10T08:41:29.013Z,110.65
2023-04-10T08:43:58.238Z,107.50
2023-04-10T08:46:26.415Z,100.85
2023-04-10T08:48:58.276Z,112.38
2023-04-10T08:51:30.184Z,102.20
2023-04-10T08:54:06.744Z,114.50
2023-04-10T08:56:35.829Z,109.95
2023-04-10T08:59:04.284Z,100.38
2023-04-10T09:01:32.286Z,97.82
2023-04-10T09:04:00.564Z,87.20
2023-04-10T09:06:28.703Z,92.53
2023-04-10T09:08:56.281Z,90.80
2023-04-10T09:11:25.226Z,84.93
2023-04-10T09:13:52.949Z,91.03
2023-04-10T09:16:30.155Z,79.28
2023-04-10T09:18:59.780Z,79.68
2023-04-10T09:21:28.015Z,80.78
2023-04-10T09:24:02.061Z,85.32
2023-04-10T09:26:32.598Z,86.15
2023-04-10T09:29:02.465Z,91.47
2023-04-10T09:31:32.479Z,92.10
2023-04-10T09:34:11.625Z,82.57
2023-04-10T09:36:41.134Z,87.78
2023-04-10T09:39:09.745Z,93.82
2023-04-10T09:41:48.665Z,93.15
2023-04-10T09:44:19.672Z,92.95
2023-04-10T09:46:49.569Z,86.15
2023-04-10T09:49:17.580Z,85.45
2023-04-10T09:51:45.542Z,90.28
2023-04-10T09:54:13.160Z,88.85
2023-04-10T09:56:40.864Z,94.60
2023-04-10T09:59:10.290Z,97.60
2023-04-10T10:01:41.038Z,90.50
2023-04-10T10:04:09.192Z,94.30
2023-04-10T10:06:39.354Z,103.50
2023-04-10T10:09:07.205Z,93.95
2023-04-10T10:11:36.288Z,101.57
2023-04-10T10:14:07.341Z,102.32
2023-04-10T10:16:41.057Z,102.72
2023-04-10T10:19:12.827Z,89.97
2023-04-10T10:21:43.079Z,88.60
2023-04-10T10:24:12.648Z,97.03
2023-04-10T10:26:41.269Z,99.05
2023-04-10T10:29:10.984Z,93.05
2023-04-10T10:31:40.077Z,86.70
2023-04-10T10:34:09.680Z,97.75
2023-04-10T10:36:38.023Z,88.88
2023-04-10T10:39:30.282Z,85.25
2023-04-10T10:42:09.499Z,79.43
2023-04-10T10:44:43.895Z,79.72
2023-04-10T10:47:19.019Z,87.13
2023-04-10T10:49:54.081Z,79.30
2023-04-10T10:52:42.602Z,86.32
2023-04-10T10:55:38.333Z,81.82
2023-04-10T10:58:07.864Z,90.60
2023-04-10T11:01:10.517Z,94.15
2023-04-10T11:03:40.568Z,87.85
2023-04-10T11:06:09.320Z,97.55
2023-04-10T11:08:42.422Z,95.15
2023-04-10T11:11:12.563Z,107.68
2023-04-10T11:13:41.921Z,109.90
2023-04-10T11:16:11.656Z,104.47
2023-04-10T11:19:14.716Z,104.25
2023-04-10T11:22:01.514Z,97.63
2023-04-10T11:24:50.929Z,100.30
2023-04-10T11:27:44.690Z,98.70
2023-04-10T11:30:33.215Z,98.40
2023-04-10T11:33:02.376Z,99.88
2023-04-10T11:35:32.958Z,100.63
2023-04-10T11:38:14.641Z,105.13
2023-04-10T11:41:03.941Z,104.97
2023-04-10T11:43:32.414Z,91.90
2023-04-10T11:46:01.666Z,98.68
2023-04-10T11:48:30.288Z,98.30
2023-04-10T11:51:01.599Z,102.90
2023-04-10T11:53:30.065Z,96.45
2023-04-10T11:55:58.498Z,93.05
2023-04-10T11:58:26.969Z,100.45
2023-04-10T12:01:01.939Z,93.95
2023-04-10T12:03:37.249Z,107.75
2023-04-10T12:06:08.695Z,93.45
2023-04-10T12:08:37.882Z,100.80
2023-04-10T12:11:06.125Z,97.40
2023-04-10T12:13:33.854Z,91.18
2023-04-10T12:16:03.146Z,94.97
2023-04-10T12:18:31.650Z,94.47
2023-04-10T12:21:00.152Z,101.22
2023-04-10T12:23:30.586Z,97.70
2023-04-10T12:26:13.295Z,96.28
2023-04-10T12:28:42.995Z,105.05
2023-04-10T12:31:11.100Z,111.25
2023-04-10T12:33:38.768Z,105.90
2023-04-10T12:36:07.014Z,101.68
2023-04-10T12:38:40.778Z,99.03
2023-04-10T12:41:09.711Z,109.78
2023-04-10T12:43:38.873Z,98.93
2023-04-10T12:46:08.153Z,107.38
2023-04-10T12:48:36.076Z,98.68
2023-04-10T12:51:04.052Z,116.82
2023-04-10T12:53:31.888Z,104.47
2023-04-10T12:56:03.253Z,107.05
2023-04-10T12:58:31.926Z,111.35
2023-04-10T13:01:03.568Z,114.78
2023-04-10T13:03:31.834Z,108.35
2023-04-10T13:05:59.959Z,102.22
2023-04-10T13:08:27.604Z,107.35
2023-04-10T13:10:58.024Z,100.22
2023-04-10T13:13:27.055Z,91.18
2023-04-10T13:15:55.570Z,88.63
2023-04-10T13:18:23.512Z,101.78
2023-04-10T13:20:51.767Z,97.25
2023-04-10T13:23:19.444Z,89.78
2023-04-10T13:25:47.452Z,96.35
2023-04-10T13:28:15.901Z,87.38
2023-04-10T13:30:44.977Z,83.60
2023-04-10T13:33:12.674Z,94.82
2023-04-10T13:35:40.978Z,88.47
2023-04-10T13:38:09.379Z,88.28
2023-04-10T13:40:37.186Z,93.82
2023-04-10T13:43:06.778Z,91.57
2023-04-10T13:45:34.853Z,79.63
2023-04-10T13:48:04.242Z,82.88
2023-04-10T13:50:32.160Z,82.22
2023-04-10T13:52:59.976Z,77.68
2023-04-10T13:55:27.767Z,84.75
2023-04-10T13:57:55.520Z,91.43
2023-04-10T14:00:23.171Z,83.57
2023-04-10T14:02:51.078Z,82.32
2023-04-10T14:05:20.309Z,84.70
2023-04-10T14:07:48.378Z,92.25
2023-04-10T14:10:15.985Z,86.88
2023-04-10T14:12:43.639Z,80.72
2023-04-10T14:15:11.433Z,97.13
2023-04-10T14:17:39.164Z,86.47
2023-04-10T14:20:11.210Z,93.25
2023-04-10T14:22:40.238Z,95.05
2023-04-10T14:25:13.675Z,85.32
2023-04-10T14:27:41.605Z,88.38
2023-04-10T14:30:10.218Z,102.63
2023-04-10T14:32:39.618Z,94.15
2023-04-10T14:35:08.443Z,88.13
2023-04-10T14:37:36.599Z,93.72
2023-04-10T14:40:06.922Z,85.03
2023-04-10T14:42:34.559Z,79.18
2023-04-10T14:45:02.204Z,82.30
2023-04-10T14:47:29.975Z,88.00
2023-04-10T14:49:57.681Z,80.07
2023-04-10T14:52:25.439Z,82.30
2023-04-10T14:54:53.026Z,82.80
2023-04-10T14:57:22.083Z,78.25
2023-04-10T14:59:49.695Z,85.03
2023-04-10T15:02:17.358Z,79.75
2023-04-10T15:04:45.086Z,74.20
2023-04-10T15:07:13.549Z,77.45
2023-04-10T15:09:41.430Z,79.85
2023-04-10T15:12:09.104Z,85.63
2023-04-10T15:14:38.119Z,82.82
2023-04-10T15:17:05.806Z,95.85
2023-04-10T15:19:33.465Z,80.78
2023-04-10T15:22:01.170Z,75.05
2023-04-10T15:24:30.707Z,72.53
2023-04-10T15:27:01.200Z,76.63
2023-04-10T15:29:28.842Z,75.90
2023-04-10T15:32:00.479Z,80.15
2023-04-10T15:34:28.130Z,79.18
2023-04-10T15:36:55.899Z,83.85
2023-04-10T15:39:23.761Z,71.93
2023-04-10T15:41:51.413Z,75.22
2023-04-10T15:44:19.118Z,80.00
2023-04-10T15:46:47.385Z,81.53
2023-04-10T15:49:29.774Z,84.40
2023-04-10T15:52:01.961Z,77.82
2023-04-10T15:54:29.745Z,83.72
2023-04-10T15:56:57.398Z,83.05
2023-04-10T15:59:25.428Z,83.45
2023-04-10T16:01:53.058Z,73.07
2023-04-10T16:04:22.202Z,79.97
2023-04-10T16:06:50.020Z,77.22
2023-04-10T16:09:24.989Z,75.70
2023-04-10T16:11:54.810Z,84.57
2023-04-10T16:14:22.769Z,92.03
2023-04-10T16:16:50.921Z,91.70
2023-04-10T16:19:18.569Z,103.50
2023-04-10T16:21:47.557Z,93.68
2023-04-10T16:24:15.408Z,92.60
2023-04-10T16:26:43.084Z,98.25
2023-04-10T16:29:10.730Z,106.70
2023-04-10T16:31:38.388Z,107.78
2023-04-10T16:34:06.115Z,105.97
2023-04-10T16:36:34.229Z,103.40
2023-04-10T16:39:03.211Z,111.40
2023-04-10T16:41:31.010Z,106.20
2023-04-10T16:43:58.665Z,100.97
2023-04-10T16:46:26.299Z,93.47
2023-04-10T16:48:54.272Z,98.93
2023-04-10T16:51:22.142Z,103.60
2023-04-10T16:53:49.746Z,97.35
2023-04-10T16:56:19.880Z,100.97
2023-04-10T16:58:47.611Z,102.55
2023-04-10T17:01:17.640Z,109.50
2023-04-10T17:03:45.591Z,98.40
2023-04-10T17:06:14.027Z,112.03
2023-04-10T17:08:41.665Z,118.55
2023-04-10T17:11:09.661Z,114.07
2023-04-10T17:13:38.843Z,112.57
2023-04-10T17:16:07.588Z,102.28
2023-04-10T17:18:35.253Z,108.30
2023-04-10T17:21:02.896Z,102.13
2023-04-10T17:23:30.998Z,108.07
2023-04-10T17:25:58.769Z,108.00
2023-04-10T17:28:26.415Z,111.13
2023-04-10T17:30:55.404Z,110.70
2023-04-10T17:33:23.559Z,112.50
2023-04-10T17:35:52.104Z,123.05
2023-04-10T17:38:20.110Z,114.00
2023-04-10T17:40:47.743Z,116.32
2023-04-10T17:43:15.370Z,110.07
2023-04-10T17:45:43.046Z,115.05
2023-04-10T17:48:12.188Z,116.03
2023-04-10T17:50:39.916Z,110.80
2023-04-10T17:53:07.569Z,102.50
2023-04-10T17:55:39.032Z,111.07
2023-04-10T17:58:07.066Z,104.15
2023-04-10T18:00:35.600Z,105.10
2023-04-10T18:03:03.432Z,100.72
2023-04-10T18:05:34.618Z,103.50
2023-04-10T18:08:02.306Z,102.90
2023-04-10T18:10:30.051Z,96.10
2023-04-10T18:12:58.540Z,98.57
2023-04-10T18:15:26.268Z,100.15
2023-04-10T18:17:55.042Z,88.80
2023-04-10T18:20:22.698Z,100.35
2023-04-10T18:22:51.733Z,97.30
2023-04-10T18:25:19.546Z,99.63
2023-04-10T18:28:04.581Z,105.13
2023-04-10T18:30:38.958Z,94.53
2023-04-10T18:33:09.902Z,95.65
2023-04-10T18:35:38.910Z,106.28
2023-04-10T18:38:07.923Z,106.40
2023-04-10T18:40:36.751Z,108.47
2023-04-10T18:43:04.667Z,101.32
2023-04-10T18:45:33.905Z,96.65
2023-04-10T18:48:01.907Z,103.05
2023-04-10T18:50:29.960Z,96.10
2023-04-10T18:52:57.612Z,107.50
2023-04-10T18:55:26.860Z,104.88
2023-04-10T18:57:54.532Z,102.28
2023-04-10T19:00:22.473Z,106.07
2023-04-10T19:02:50.270Z,108.28
2023-04-10T19:05:17.961Z,98.25
2023-04-10T19:07:56.712Z,108.57
2023-04-10T19:10:32.488Z,92.72
2023-04-10T19:13:00.202Z,96.63
2023-04-10T19:15:27.888Z,94.65
2023-04-10T19:17:55.672Z,100.88
2023-04-10T19:20:50.414Z,100.57
2023-04-10T19:23:11.697Z,100.57
2023-04-10T19:25:41.375Z,102.25
2023-04-10T19:28:09.097Z,105.25
2023-04-10T19:30:36.704Z,102.15
2023-04-10T19:33:04.442Z,97.38
2023-04-10T19:35:32.229Z,100.25
2023-04-10T19:37:59.888Z,103.43
2023-04-10T19:40:27.642Z,100.80
2023-04-10T19:42:59.340Z,101.65
2023-04-10T19:45:28.969Z,99.85
2023-04-10T19:47:57.497Z,94.97
2023-04-10T19:50:25.446Z,105.10
2023-04-10T19:52:53.094Z,103.75
2023-04-10T19:55:20.985Z,94.82
2023-04-10T19:57:48.708Z,110.63
2023-04-10T20:00:18.614Z,100.55
2023-04-10T20:02:46.635Z,96.78
2023-04-10T20:05:14.615Z,110.93
2023-04-10T20:07:42.292Z,103.47
2023-04-10T20:10:10.553Z,107.70
2023-04-10T20:12:38.278Z,106.15
2023-04-10T20:15:07.296Z,100.63
2023-04-10T20:17:36.617Z,110.72
2023-04-10T20:20:04.859Z,109.57
2023-04-10T20:22:33.237Z,109.95
2023-04-10T20:25:00.901Z,110.18
2023-04-10T20:27:28.581Z,106.60
2023-04-10T20:29:56.229Z,111.75
2023-04-10T20:32:23.840Z,105.53
2023-04-10T20:34:52.876Z,106.97
2023-04-10T20:37:21.871Z,116.10
2023-04-10T20:39:49.867Z,118.82
2023-04-10T20:42:18.003Z,114.70
2023-04-10T20:44:46.001Z,115.63
2023-04-10T20:47:14.205Z,114.95
2023-04-10T20:49:41.948Z,113.60
2023-04-10T20:52:11.055Z,111.53
2023-04-10T20:54:38.811Z,120.32
2023-04-10T20:57:06.490Z,120.47
2023-04-10T20:59:35.992Z,118.70
2023-04-10T21:02:03.876Z,109.85
2023-04-10T21:04:32.589Z,121.55
2023-04-10T21:07:00.377Z,128.63
2023-04-10T21:09:29.358Z,129.52
2023-04-10T21:11:57.249Z,129.60
2023-04-10T21:14:25.001Z,129.00
2023-04-10T21:16:52.701Z,127.22
2023-04-10T21:19:20.557Z,132.57
2023-04-10T21:21:48.273Z,125.65
2023-04-10T21:24:16.000Z,135.23
2023-04-10T21:26:45.016Z,127.82
2023-04-10T21:29:12.634Z,131.93
2023-04-10T21:31:40.336Z,127.38
2023-04-10T21:34:08.013Z,129.65
2023-04-10T21:36:35.746Z,126.22
2023-04-10T21:39:03.475Z,134.43
2023-04-10T21:41:31.261Z,127.90
2023-04-10T21:44:00.847Z,132.88
2023-04-10T21:46:28.726Z,138.38
2023-04-10T21:48:56.595Z,146.13
2023-04-10T21:51:26.768Z,141.93
2023-04-10T21:53:54.601Z,136.95
2023-04-10T21:56:22.288Z,147.55
2023-04-10T21:58:49.916Z,142.07
2023-04-10T22:01:19.024Z,144.65
2023-04-10T22:03:46.800Z,146.00
2023-04-10T22:06:14.584Z,149.90
2023-04-10T22:08:42.258Z,136.10
2023-04-10T22:11:09.886Z,151.38
2023-04-10T22:13:37.625Z,161.10
2023-04-10T22:16:06.207Z,144.13
2023-04-10T22:18:35.359Z,159.43
2023-04-10T22:21:02.972Z,140.38
2023-04-10T22:23:30.644Z,145.73
2023-04-10T22:26:00.403Z,156.48
2023-04-10T22:28:28.473Z,155.32
2023-04-10T22:30:56.614Z,152.85
2023-04-10T22:33:24.296Z,150.48
2023-04-10T22:35:54.160Z,161.68
2023-04-10T22:38:21.824Z,162.18
2023-04-10T22:40:49.742Z,162.48
2023-04-10T22:43:17.357Z,168.43
2023-04-10T22:45:44.980Z,159.70
2023-04-10T22:48:12.702Z,160.88
2023-04-10T22:50:40.371Z,174.27
2023-04-10T22:53:10.302Z,179.40
2023-04-10T22:55:38.490Z,183.07
2023-04-10T22:58:06.240Z,222.23
2023-04-10T23:00:34.112Z,221.32
2023-04-10T23:03:02.097Z,239.18
2023-04-10T23:05:30.191Z,259.63
2023-04-10T23:07:59.111Z,285.08
2023-04-10T23:10:28.086Z,303.00
2023-04-10T23:12:55.700Z,307.92
2023-04-10T23:15:23.779Z,299.13
2023-04-10T23:17:51.483Z,305.67
2023-04-10T23:20:19.310Z,314.38
2023-04-10T23:22:47.030Z,330.65
2023-04-10T23:25:15.465Z,331.88
2023-04-10T23:27:44.438Z,335.23
2023-04-10T23:30:12.570Z,316.08
2023-04-10T23:32:40.302Z,326.38
2023-04-10T23:35:08.511Z,327.70
2023-04-10T23:37:36.196Z,307.88
2023-04-10T23:40:04.114Z,312.50
2023-04-10T23:42:31.789Z,328.20
2023-04-10T23:45:00.777Z,313.85
2023-04-10T23:47:28.459Z,313.27
2023-04-10T23:49:56.460Z,331.95
2023-04-10T23:52:24.061Z,318.98
2023-04-10T23:54:51.732Z,326.85
2023-04-10T23:57:19.517Z,333.50
2023-04-10T23:59:47.715Z,322.23
